createdAt,value
2023-10-12T00:03:07.659Z,19.22
2023-10-12T00:30:07.995Z,18.87
2023-10-12T00:33:07.544Z,18.76
2023-10-12T00:58:07.907Z,18.4
2023-10-12T01:03:07.431Z,18.2
2023-10-12T01:33:07.613Z,17.94
2023-10-12T01:50:07.867Z,17.62
2023-10-12T02:03:07.410Z,17.32
2023-10-12T02:12:07.837Z,16.98
2023-10-12T02:20:07.809Z,16.67
2023-10-12T02:26:07.784Z,16.36
2023-10-12T02:32:07.844Z,16.03
2023-10-12T02:33:07.218Z,15.99
2023-10-12T02:44:07.734Z,15.68
2023-10-12T03:03:07.188Z,15.36
2023-10-12T03:22:07.621Z,15.01
2023-10-12T03:33:07.048Z,14.92
2023-10-12T04:03:07.056Z,14.76
2023-10-12T04:33:06.887Z,14.65
2023-10-12T05:03:06.748Z,14.45
2023-10-12T05:33:06.566Z,14.35
2023-10-12T06:03:06.478Z,14.29
2023-10-12T06:33:06.277Z,14.39
2023-10-12T07:03:06.225Z,14.45
2023-10-12T07:33:06.317Z,14.62
2023-10-12T08:03:06.059Z,14.79
2023-10-12T08:33:05.900Z,15.1
2023-10-12T09:03:05.851Z,15.29
2023-10-12T09:33:05.691Z,15.52
2023-10-12T09:46:06.637Z,15.84
2023-10-12T09:59:06.613Z,16.16
2023-10-12T10:03:05.662Z,16.27
2023-10-12T11:32:54.969Z,16.94
2023-10-12T12:02:54.793Z,16.91
2023-10-12T12:32:54.448Z,16.73
2023-10-12T12:58:54.437Z,17.04
2023-10-12T13:02:54.455Z,17.1
2023-10-12T13:32:54.270Z,16.8
2023-10-12T14:02:54.249Z,16.78
2023-10-12T14:32:54.106Z,16.87
2023-10-12T15:02:54.012Z,16.72
2023-10-12T15:32:53.950Z,16.42
2023-10-12T15:55:54.043Z,16.11
2023-10-12T16:02:53.822Z,16.03
2023-10-12T16:32:53.755Z,15.72
2023-10-12T17:02:53.737Z,15.45
2023-10-12T17:32:53.509Z,15.26
2023-10-12T18:02:53.455Z,15.18
2023-10-12T18:32:53.325Z,15.29
2023-10-12T19:02:53.253Z,15.54
2023-10-12T19:32:53.157Z,15.72
2023-10-12T20:02:53.089Z,15.94
2023-10-12T20:32:52.940Z,16.09
2023-10-12T21:02:52.694Z,16.29
2023-10-12T21:32:52.653Z,16.54
2023-10-12T22:02:52.668Z,16.59
2023-10-12T22:32:52.494Z,16.58
2023-10-12T23:02:52.477Z,16.69
2023-10-12T23:32:52.367Z,16.61
